Weather at Eros Airport

Public forecast

Using degrees Celsius for public forecast. Weather courtesy of forecast.io.

Current aviation weather report (METAR) for Eros Airport

2024/02/25 06:00 (retrieved 25 minutes ago)

FYWE 250600Z 17007KT CAVOK 22/04 Q1024

Closest aviation forecast (TAF) to Eros Airport

Closest forecast is Hosea Kutako International Airport, 23.1 nm (42.7 km) ENE.

2024/02/25 06:00 (retrieved 25 minutes ago)

TAF FYWH 250400Z 2506/2606 18005KT 9999 NSC BECMG 2509/2511 10005KT SCT050 PROB30 TEMPO 2512/2518 33005KT -TSRA FEW040CB